createdAt,value
2023-11-21T00:00:17.356Z,21.95
2023-11-21T00:00:57.293Z,22.06
2023-11-21T00:01:37.103Z,22.17
2023-11-21T00:02:16.933Z,22.07
2023-11-21T00:02:56.731Z,22.10
2023-11-21T00:03:37.842Z,21.97
2023-11-21T00:04:17.783Z,22.23
2023-11-21T00:04:57.472Z,22.29
2023-11-21T00:05:37.527Z,22.31
2023-11-21T00:06:17.411Z,22.26
2023-11-21T00:06:57.149Z,22.20
2023-11-21T00:07:36.894Z,22.37
2023-11-21T00:08:16.775Z,22.43
2023-11-21T00:08:56.988Z,22.27
2023-11-21T00:09:38.630Z,22.45
2023-11-21T00:10:18.367Z,22.65
2023-11-21T00:10:58.391Z,22.66
2023-11-21T00:11:39.952Z,22.65
2023-11-21T00:12:19.835Z,22.22
2023-11-21T00:12:59.582Z,22.25
2023-11-21T00:13:39.787Z,22.32
2023-11-21T00:14:20.013Z,22.08
2023-11-21T00:15:00.078Z,22.22
2023-11-21T00:15:39.747Z,22.16
2023-11-21T00:16:20.350Z,22.33
2023-11-21T00:17:01.823Z,22.38
2023-11-21T00:17:41.926Z,22.22
2023-11-21T00:18:21.739Z,22.27
2023-11-21T00:19:01.459Z,22.29
2023-11-21T00:19:42.599Z,22.37
2023-11-21T00:20:22.973Z,22.53
2023-11-21T00:21:02.761Z,22.39
2023-11-21T00:21:42.778Z,22.41
2023-11-21T00:22:22.781Z,22.40
2023-11-21T00:23:04.352Z,22.24
2023-11-21T00:23:44.127Z,22.26
2023-11-21T00:24:23.817Z,22.58
2023-11-21T00:25:05.884Z,22.62
2023-11-21T00:25:46.151Z,22.83
2023-11-21T00:26:26.280Z,22.59
2023-11-21T00:27:14.808Z,22.80
2023-11-21T00:27:56.037Z,22.50
2023-11-21T00:28:35.757Z,22.67
2023-11-21T00:29:15.520Z,22.69
2023-11-21T00:29:55.609Z,22.75
2023-11-21T00:30:35.844Z,22.72
2023-11-21T00:31:15.815Z,22.57
2023-11-21T00:31:55.581Z,22.86
2023-11-21T00:32:36.117Z,22.80
2023-11-21T00:33:16.084Z,22.91
2023-11-21T00:33:57.540Z,22.65
2023-11-21T00:34:37.234Z,22.66
2023-11-21T00:35:17.909Z,22.65
2023-11-21T00:35:58.678Z,22.27
2023-11-21T00:36:38.398Z,22.58
2023-11-21T00:37:18.351Z,22.48
2023-11-21T00:37:58.350Z,22.30
2023-11-21T00:38:41.852Z,22.46
2023-11-21T00:39:21.696Z,22.22
2023-11-21T00:40:01.478Z,22.49
2023-11-21T00:40:42.851Z,22.20
2023-11-21T00:41:23.109Z,21.94
2023-11-21T00:42:03.093Z,21.78
2023-11-21T00:42:42.763Z,21.71
2023-11-21T00:43:22.634Z,21.56
2023-11-21T00:44:02.927Z,21.07
2023-11-21T00:44:42.601Z,21.16
2023-11-21T00:45:22.321Z,20.90
2023-11-21T00:46:02.149Z,21.25
2023-11-21T00:46:42.537Z,21.28
2023-11-21T00:47:22.436Z,21.42
2023-11-21T00:48:02.167Z,21.38
2023-11-21T00:48:42.300Z,21.61
2023-11-21T00:49:22.827Z,21.70
2023-11-21T00:50:02.840Z,21.67
2023-11-21T00:50:43.409Z,21.48
2023-11-21T00:51:24.054Z,21.54
2023-11-21T00:52:04.773Z,21.02
2023-11-21T00:52:44.993Z,21.28
2023-11-21T00:53:25.937Z,21.36
2023-11-21T00:54:06.332Z,21.49
2023-11-21T00:54:46.821Z,21.25
2023-11-21T00:55:28.400Z,21.09
2023-11-21T00:56:10.452Z,21.00
2023-11-21T00:56:50.299Z,21.16
2023-11-21T00:57:30.687Z,21.30
2023-11-21T00:58:10.377Z,20.87
2023-11-21T00:58:54.097Z,20.99
2023-11-21T00:59:33.981Z,20.97
2023-11-21T01:00:18.936Z,21.02
2023-11-21T01:00:58.531Z,20.86
2023-11-21T01:01:39.891Z,20.82
2023-11-21T01:02:21.317Z,20.43
2023-11-21T01:03:02.048Z,20.49
2023-11-21T01:03:42.760Z,20.47
2023-11-21T01:04:22.584Z,20.35
2023-11-21T01:05:02.485Z,20.35
2023-11-21T01:05:42.946Z,20.35
2023-11-21T01:06:22.608Z,20.55
2023-11-21T01:07:02.289Z,20.59
2023-11-21T01:07:43.230Z,20.52
2023-11-21T01:08:26.114Z,20.64
2023-11-21T01:09:10.271Z,20.84
2023-11-21T01:09:50.562Z,20.79
2023-11-21T01:10:30.709Z,20.50
2023-11-21T01:11:10.653Z,20.69
2023-11-21T01:11:50.651Z,20.77
2023-11-21T01:12:30.793Z,20.72
2023-11-21T01:13:10.641Z,20.86
2023-11-21T01:13:50.973Z,20.97
2023-11-21T01:14:30.785Z,20.87
2023-11-21T01:15:10.949Z,20.69
2023-11-21T01:15:50.849Z,20.79
2023-11-21T01:16:30.733Z,20.97
2023-11-21T01:17:10.733Z,20.85
2023-11-21T01:17:50.676Z,20.72
2023-11-21T01:18:31.192Z,20.88
2023-11-21T01:19:11.500Z,20.81
2023-11-21T01:19:52.676Z,20.83
2023-11-21T01:20:32.537Z,20.84
2023-11-21T01:21:12.676Z,20.49
2023-11-21T01:21:53.959Z,20.49
2023-11-21T01:22:33.761Z,20.49
2023-11-21T01:23:13.542Z,20.65
2023-11-21T01:23:53.196Z,20.99
2023-11-21T01:24:33.454Z,21.05
2023-11-21T01:25:13.639Z,20.92
2023-11-21T01:25:53.812Z,20.91
2023-11-21T01:26:33.659Z,21.00
2023-11-21T01:27:15.045Z,20.98
2023-11-21T01:27:54.779Z,21.10
2023-11-21T01:28:34.518Z,20.81
2023-11-21T01:29:14.373Z,20.97
2023-11-21T01:29:55.560Z,21.13
2023-11-21T01:30:35.536Z,21.08
2023-11-21T01:31:15.332Z,21.33
2023-11-21T01:31:55.369Z,21.10
2023-11-21T01:32:36.021Z,21.38
2023-11-21T01:33:17.888Z,21.12
2023-11-21T01:33:59.149Z,21.19
2023-11-21T01:34:39.450Z,21.20
2023-11-21T01:35:19.671Z,21.15
2023-11-21T01:35:59.354Z,20.97
2023-11-21T01:36:39.014Z,20.83
2023-11-21T01:37:19.509Z,20.97
2023-11-21T01:37:59.526Z,20.91
2023-11-21T01:38:39.254Z,20.83
2023-11-21T01:39:25.419Z,21.01
2023-11-21T01:40:10.212Z,21.23
2023-11-21T01:40:51.233Z,21.08
2023-11-21T01:41:32.755Z,21.00
2023-11-21T01:42:14.803Z,21.32
2023-11-21T01:42:56.248Z,21.37
2023-11-21T01:43:36.138Z,21.12
2023-11-21T01:44:15.886Z,20.92
2023-11-21T01:44:56.844Z,20.95
2023-11-21T01:45:36.558Z,20.87
2023-11-21T01:46:17.581Z,21.02
2023-11-21T01:46:59.621Z,20.79
2023-11-21T01:47:40.214Z,20.93
2023-11-21T01:48:20.618Z,21.06
2023-11-21T01:49:01.165Z,21.13
2023-11-21T01:49:41.376Z,21.08
2023-11-21T01:50:21.222Z,21.17
2023-11-21T01:51:01.304Z,21.17
2023-11-21T01:51:45.728Z,21.10
2023-11-21T01:52:26.557Z,20.96
2023-11-21T01:53:08.839Z,21.01
2023-11-21T01:53:49.110Z,21.00
2023-11-21T01:54:33.925Z,20.94
2023-11-21T01:55:27.526Z,20.75
2023-11-21T01:56:11.759Z,21.06
2023-11-21T01:56:51.959Z,21.01
2023-11-21T01:57:32.253Z,21.01
2023-11-21T01:58:15.056Z,20.85
2023-11-21T01:58:56.446Z,20.95
2023-11-21T01:59:40.142Z,21.02
2023-11-21T02:00:21.179Z,20.87
2023-11-21T02:01:01.265Z,20.69
2023-11-21T02:01:43.319Z,20.75
2023-11-21T02:02:23.157Z,20.86
2023-11-21T02:03:04.615Z,20.61
2023-11-21T02:03:44.480Z,20.55
2023-11-21T02:04:24.594Z,20.54
2023-11-21T02:05:04.620Z,20.42
2023-11-21T02:05:44.693Z,20.42
2023-11-21T02:06:24.702Z,20.53
2023-11-21T02:07:09.100Z,20.63
2023-11-21T02:07:54.195Z,20.86
2023-11-21T02:08:34.925Z,21.17
2023-11-21T02:09:17.358Z,21.23
2023-11-21T02:09:57.863Z,21.18
2023-11-21T02:10:39.169Z,21.10
2023-11-21T02:11:21.270Z,20.87
2023-11-21T02:12:01.144Z,20.97
2023-11-21T02:12:40.944Z,20.91
2023-11-21T02:13:20.722Z,20.77
2023-11-21T02:14:02.803Z,20.72
2023-11-21T02:14:42.550Z,20.92
2023-11-21T02:15:22.578Z,21.06
2023-11-21T02:16:02.434Z,21.09
2023-11-21T02:16:42.764Z,20.79
2023-11-21T02:17:29.522Z,20.99
2023-11-21T02:18:12.007Z,21.03
2023-11-21T02:18:54.210Z,21.24
2023-11-21T02:19:35.080Z,20.88
2023-11-21T02:20:19.738Z,20.79
2023-11-21T02:20:59.722Z,20.78
2023-11-21T02:21:42.434Z,20.87
2023-11-21T02:22:24.517Z,21.05
2023-11-21T02:23:04.302Z,20.94
2023-11-21T02:23:46.345Z,20.85
2023-11-21T02:24:26.753Z,20.74
2023-11-21T02:25:07.492Z,20.62
2023-11-21T02:25:47.232Z,20.65
2023-11-21T02:26:29.585Z,20.72
2023-11-21T02:27:09.341Z,20.96
2023-11-21T02:27:50.225Z,21.16
2023-11-21T02:28:30.937Z,21.28
2023-11-21T02:29:13.980Z,21.09
2023-11-21T02:29:53.660Z,20.81
2023-11-21T02:30:34.381Z,20.83
2023-11-21T02:31:14.510Z,20.96
2023-11-21T02:31:57.035Z,21.06
2023-11-21T02:32:36.921Z,21.16
2023-11-21T02:33:28.499Z,21.00
2023-11-21T02:34:08.221Z,20.89
2023-11-21T02:34:48.172Z,20.91
2023-11-21T02:35:28.182Z,20.68
2023-11-21T02:36:08.666Z,20.71
2023-11-21T02:36:49.402Z,21.01
2023-11-21T02:37:29.768Z,20.79
2023-11-21T02:38:09.483Z,20.62
2023-11-21T02:38:49.586Z,20.77
2023-11-21T02:39:29.522Z,21.14
2023-11-21T02:40:11.780Z,21.23
2023-11-21T02:40:51.583Z,21.06
2023-11-21T02:41:31.841Z,21.03
2023-11-21T02:42:12.407Z,20.83
2023-11-21T02:42:53.325Z,20.79
2023-11-21T02:43:33.086Z,20.88
2023-11-21T02:44:13.580Z,20.89
2023-11-21T02:44:53.356Z,20.86
2023-11-21T02:45:33.568Z,20.77
2023-11-21T02:46:13.320Z,20.91
2023-11-21T02:46:53.569Z,20.63
2023-11-21T02:47:33.366Z,20.75
2023-11-21T02:48:13.420Z,20.95
2023-11-21T02:48:55.522Z,20.85
2023-11-21T02:49:37.796Z,21.08
2023-11-21T02:50:18.336Z,20.95
2023-11-21T02:50:58.947Z,20.66
2023-11-21T02:51:41.990Z,20.54
2023-11-21T02:52:22.502Z,20.48
2023-11-21T02:53:02.260Z,20.81
2023-11-21T02:53:42.196Z,20.95
2023-11-21T02:54:23.957Z,21.05
2023-11-21T02:55:05.231Z,20.91
2023-11-21T02:55:45.298Z,20.97
2023-11-21T02:56:25.062Z,21.03
2023-11-21T02:57:05.280Z,20.96
2023-11-21T02:57:45.483Z,21.05
2023-11-21T02:58:25.257Z,21.11
2023-11-21T02:59:05.688Z,21.05
2023-11-21T02:59:45.445Z,21.25
2023-11-21T03:00:28.538Z,21.21
2023-11-21T03:01:09.458Z,21.25
2023-11-21T03:01:49.301Z,21.05
2023-11-21T03:02:29.216Z,21.13
2023-11-21T03:03:10.305Z,21.02
2023-11-21T03:03:53.121Z,20.92
2023-11-21T03:04:34.707Z,20.96
2023-11-21T03:05:14.447Z,21.18
2023-11-21T03:05:54.317Z,21.00
2023-11-21T03:06:34.024Z,20.95
2023-11-21T03:07:13.820Z,20.94
2023-11-21T03:07:53.759Z,21.15
2023-11-21T03:08:34.328Z,21.25
2023-11-21T03:09:14.332Z,21.21
2023-11-21T03:09:54.229Z,21.20
2023-11-21T03:10:34.174Z,21.28
2023-11-21T03:11:14.977Z,21.13
2023-11-21T03:11:55.441Z,20.79
2023-11-21T03:12:35.172Z,20.81
2023-11-21T03:13:15.463Z,21.09
2023-11-21T03:13:55.758Z,20.93
2023-11-21T03:14:35.491Z,21.10
2023-11-21T03:15:15.478Z,21.05
2023-11-21T03:15:56.478Z,20.93
2023-11-21T03:16:36.638Z,20.76
2023-11-21T03:17:16.914Z,20.71
2023-11-21T03:17:56.808Z,20.64
2023-11-21T03:18:37.389Z,20.97
2023-11-21T03:19:17.766Z,20.84
2023-11-21T03:19:59.166Z,20.84
2023-11-21T03:20:39.888Z,20.69
2023-11-21T03:21:19.677Z,20.86
2023-11-21T03:21:59.606Z,21.05
2023-11-21T03:22:40.601Z,21.04
2023-11-21T03:23:20.423Z,20.83
2023-11-21T03:24:01.831Z,20.57
2023-11-21T03:24:42.071Z,20.87
2023-11-21T03:25:22.483Z,20.79
2023-11-21T03:26:02.392Z,20.78
2023-11-21T03:26:43.217Z,20.72
2023-11-21T03:27:23.110Z,20.87
2023-11-21T03:28:02.875Z,21.06
2023-11-21T03:28:42.955Z,20.89
2023-11-21T03:29:22.695Z,20.94
2023-11-21T03:30:03.145Z,20.67
2023-11-21T03:30:43.252Z,20.84
2023-11-21T03:31:23.305Z,21.01
2023-11-21T03:32:03.959Z,20.97
2023-11-21T03:32:43.933Z,20.83
2023-11-21T03:33:24.093Z,20.78
2023-11-21T03:34:05.414Z,20.84
2023-11-21T03:35:00.919Z,21.18
2023-11-21T03:35:43.914Z,21.09
2023-11-21T03:36:23.877Z,21.00
2023-11-21T03:37:04.029Z,20.71
2023-11-21T03:37:45.059Z,20.89
2023-11-21T03:38:25.459Z,21.05
2023-11-21T03:39:05.271Z,20.78
2023-11-21T03:39:45.181Z,20.97
2023-11-21T03:40:25.025Z,21.07
2023-11-21T03:41:05.385Z,20.65
2023-11-21T03:41:45.260Z,20.54
2023-11-21T03:42:25.297Z,20.70
2023-11-21T03:43:05.283Z,20.69
2023-11-21T03:43:45.286Z,20.45
2023-11-21T03:44:27.450Z,20.44
2023-11-21T03:45:10.737Z,20.58
2023-11-21T03:45:50.716Z,20.71
2023-11-21T03:46:30.931Z,20.58
2023-11-21T03:47:10.883Z,20.58
2023-11-21T03:47:50.697Z,20.69
2023-11-21T03:48:30.535Z,20.71
2023-11-21T03:49:10.606Z,20.47
2023-11-21T03:49:50.351Z,20.58
2023-11-21T03:50:33.548Z,20.55
2023-11-21T03:51:13.278Z,20.60
2023-11-21T03:51:53.783Z,20.84
2023-11-21T03:52:33.760Z,20.99
2023-11-21T03:53:15.253Z,20.58
2023-11-21T03:53:55.625Z,20.78
2023-11-21T03:54:36.370Z,21.02
2023-11-21T03:55:16.994Z,21.09
2023-11-21T03:55:56.783Z,21.05
2023-11-21T03:56:36.476Z,21.02
2023-11-21T03:57:16.801Z,20.89
2023-11-21T03:57:56.968Z,20.94
2023-11-21T03:58:36.790Z,20.78
2023-11-21T03:59:16.557Z,20.94
2023-11-21T03:59:56.434Z,21.07
2023-11-21T04:00:36.125Z,20.82
2023-11-21T04:01:23.815Z,20.88
2023-11-21T04:02:03.518Z,20.82
2023-11-21T04:02:43.865Z,20.78
2023-11-21T04:03:24.026Z,20.89
2023-11-21T04:04:03.923Z,20.93
2023-11-21T04:04:44.202Z,21.06
2023-11-21T04:05:24.738Z,21.01
2023-11-21T04:06:04.650Z,21.17
2023-11-21T04:06:44.443Z,21.32
2023-11-21T04:07:24.199Z,21.15
2023-11-21T04:08:04.497Z,21.18
2023-11-21T04:08:44.382Z,21.04
2023-11-21T04:09:27.036Z,21.18
2023-11-21T04:10:11.105Z,21.10
2023-11-21T04:10:51.043Z,21.47
2023-11-21T04:11:31.953Z,21.57
2023-11-21T04:12:11.711Z,21.45
2023-11-21T04:12:51.398Z,21.69
2023-11-21T04:13:32.706Z,21.76
2023-11-21T04:14:12.638Z,21.52
2023-11-21T04:14:53.582Z,21.33
2023-11-21T04:15:34.093Z,21.42
2023-11-21T04:16:14.090Z,21.38
2023-11-21T04:16:54.002Z,21.36
2023-11-21T04:17:33.967Z,21.44
2023-11-21T04:18:13.837Z,21.51
2023-11-21T04:18:54.018Z,21.28
2023-11-21T04:19:34.009Z,21.45
2023-11-21T04:20:13.996Z,21.51
2023-11-21T04:20:54.978Z,21.40
2023-11-21T04:21:35.303Z,21.57
2023-11-21T04:22:15.300Z,21.46
2023-11-21T04:22:55.065Z,21.33
2023-11-21T04:23:38.434Z,21.64
2023-11-21T04:24:18.792Z,21.69
2023-11-21T04:24:58.695Z,21.70
2023-11-21T04:25:38.449Z,21.58
2023-11-21T04:26:18.562Z,21.77
2023-11-21T04:26:58.479Z,21.90
2023-11-21T04:27:38.317Z,22.05
2023-11-21T04:28:18.207Z,21.85
2023-11-21T04:28:57.917Z,21.62
2023-11-21T04:29:38.149Z,21.75
2023-11-21T04:30:18.258Z,21.88
2023-11-21T04:30:58.132Z,21.67
2023-11-21T04:31:37.997Z,21.62
2023-11-21T04:32:18.631Z,21.65
2023-11-21T04:32:58.989Z,21.64
2023-11-21T04:33:38.712Z,21.40
2023-11-21T04:34:18.518Z,21.28
2023-11-21T04:34:58.797Z,21.32
2023-11-21T04:35:38.731Z,21.39
2023-11-21T04:36:18.731Z,21.53
2023-11-21T04:36:58.747Z,21.50
2023-11-21T04:37:38.825Z,21.60
2023-11-21T04:38:18.760Z,21.66
2023-11-21T04:38:58.582Z,21.60
2023-11-21T04:39:38.245Z,21.61
2023-11-21T04:40:18.488Z,21.70
2023-11-21T04:40:59.951Z,21.67
2023-11-21T04:41:44.786Z,21.78
2023-11-21T04:42:24.596Z,22.01
2023-11-21T04:43:05.959Z,22.00
2023-11-21T04:43:45.859Z,21.89
2023-11-21T04:44:25.542Z,21.82
2023-11-21T04:45:14.203Z,21.84
2023-11-21T04:45:54.590Z,21.84
2023-11-21T04:46:34.732Z,21.90
2023-11-21T04:47:14.696Z,22.17
2023-11-21T04:47:54.789Z,22.15
2023-11-21T04:48:34.770Z,22.19
2023-11-21T04:49:14.541Z,22.46
2023-11-21T04:49:54.249Z,22.51
2023-11-21T04:50:33.964Z,22.65
2023-11-21T04:51:14.831Z,22.45
2023-11-21T04:51:54.668Z,22.33
2023-11-21T04:52:35.216Z,22.24
2023-11-21T04:53:16.505Z,22.08
2023-11-21T04:53:56.320Z,22.26
2023-11-21T04:54:35.988Z,22.32
2023-11-21T04:55:17.446Z,22.50
2023-11-21T04:55:57.242Z,22.47
2023-11-21T04:56:37.463Z,22.33
2023-11-21T04:57:20.198Z,22.24
2023-11-21T04:57:59.923Z,22.26
2023-11-21T04:58:41.829Z,22.31
2023-11-21T04:59:21.730Z,22.64
2023-11-21T05:00:01.598Z,22.64
2023-11-21T05:00:41.611Z,22.64
2023-11-21T05:01:21.464Z,22.40
2023-11-21T05:02:02.608Z,22.22
2023-11-21T05:02:46.584Z,22.12
2023-11-21T05:03:26.638Z,22.26
2023-11-21T05:04:08.078Z,22.48
2023-11-21T05:04:48.142Z,22.72
2023-11-21T05:05:27.875Z,22.57
2023-11-21T05:06:07.952Z,22.34
2023-11-21T05:06:48.246Z,22.39
2023-11-21T05:07:32.567Z,22.59
2023-11-21T05:08:13.073Z,22.87
2023-11-21T05:08:52.758Z,23.15
2023-11-21T05:09:34.388Z,22.85
2023-11-21T05:10:16.525Z,22.60
2023-11-21T05:10:56.223Z,22.62
2023-11-21T05:11:35.999Z,22.50
2023-11-21T05:12:16.654Z,22.43
2023-11-21T05:12:57.488Z,22.34
2023-11-21T05:13:37.495Z,22.25
2023-11-21T05:14:17.351Z,22.37
2023-11-21T05:14:57.377Z,22.73
2023-11-21T05:15:37.382Z,22.39
2023-11-21T05:16:17.169Z,22.38
2023-11-21T05:16:57.570Z,22.58
2023-11-21T05:17:37.706Z,22.53
2023-11-21T05:18:18.083Z,22.38
2023-11-21T05:19:02.748Z,22.34
2023-11-21T05:19:42.974Z,22.53
2023-11-21T05:20:23.047Z,22.40
2023-11-21T05:21:04.284Z,22.55
2023-11-21T05:21:44.049Z,22.64
2023-11-21T05:22:23.788Z,22.89
2023-11-21T05:23:03.555Z,22.80
2023-11-21T05:23:43.788Z,22.56
2023-11-21T05:24:23.674Z,22.71
2023-11-21T05:25:05.566Z,22.56
2023-11-21T05:25:45.398Z,22.51
2023-11-21T05:26:25.253Z,22.82
2023-11-21T05:27:05.118Z,22.57
2023-11-21T05:27:44.841Z,22.86
2023-11-21T05:28:24.638Z,22.77
2023-11-21T05:29:04.857Z,22.91
2023-11-21T05:29:44.926Z,22.97
2023-11-21T05:30:24.794Z,22.68
2023-11-21T05:31:10.878Z,22.90
2023-11-21T05:31:56.548Z,22.58
2023-11-21T05:32:36.459Z,22.46
2023-11-21T05:33:16.313Z,22.53
2023-11-21T05:33:56.014Z,22.60
2023-11-21T05:34:36.202Z,22.70
2023-11-21T05:35:18.653Z,23.01
2023-11-21T05:35:58.584Z,23.18
2023-11-21T05:36:38.322Z,23.35
2023-11-21T05:37:19.645Z,23.15
2023-11-21T05:37:59.349Z,23.12
2023-11-21T05:38:39.196Z,23.09
2023-11-21T05:39:22.870Z,23.32
2023-11-21T05:40:07.670Z,23.32
2023-11-21T05:40:47.609Z,23.24
2023-11-21T05:41:27.822Z,23.47
2023-11-21T05:42:08.288Z,23.71
2023-11-21T05:42:48.182Z,23.78
2023-11-21T05:43:28.059Z,24.00
2023-11-21T05:44:07.925Z,23.71
2023-11-21T05:44:47.624Z,23.88
2023-11-21T05:45:27.800Z,23.90
2023-11-21T05:46:09.487Z,23.92
2023-11-21T05:46:49.894Z,23.82
2023-11-21T05:47:30.285Z,23.89
2023-11-21T05:48:10.275Z,23.81
2023-11-21T05:48:50.215Z,23.84
2023-11-21T05:49:31.155Z,23.89
2023-11-21T05:50:16.542Z,24.01
2023-11-21T05:50:56.817Z,23.92
2023-11-21T05:51:36.684Z,23.73
2023-11-21T05:52:16.384Z,23.66
2023-11-21T05:52:56.169Z,23.75
2023-11-21T05:53:36.292Z,23.89
2023-11-21T05:54:16.168Z,24.20
2023-11-21T05:54:55.838Z,24.05
2023-11-21T05:55:35.515Z,24.01
2023-11-21T05:56:15.747Z,24.15
2023-11-21T05:56:55.569Z,24.24
2023-11-21T05:57:39.199Z,24.30
2023-11-21T05:58:19.135Z,24.41
2023-11-21T05:58:59.131Z,24.47
2023-11-21T05:59:38.816Z,24.59
2023-11-21T06:00:24.778Z,24.60
2023-11-21T06:01:09.645Z,24.37
2023-11-21T06:01:49.865Z,24.56
2023-11-21T06:02:29.784Z,24.75
2023-11-21T06:03:10.062Z,24.43
2023-11-21T06:03:50.318Z,24.58
2023-11-21T06:04:30.441Z,24.86
2023-11-21T06:05:12.224Z,24.83
2023-11-21T06:05:52.019Z,24.66
2023-11-21T06:06:33.076Z,24.63
2023-11-21T06:07:13.474Z,24.85
2023-11-21T06:07:54.846Z,24.90
2023-11-21T06:08:34.597Z,24.76
2023-11-21T06:09:15.399Z,24.79
2023-11-21T06:09:55.288Z,24.82
2023-11-21T06:10:35.050Z,24.95
2023-11-21T06:11:14.923Z,24.80
2023-11-21T06:11:54.698Z,24.96
2023-11-21T06:12:37.572Z,25.11
2023-11-21T06:13:17.719Z,24.96
2023-11-21T06:13:57.413Z,25.18
2023-11-21T06:14:37.275Z,25.14
2023-11-21T06:15:17.316Z,24.84
2023-11-21T06:15:57.077Z,24.96
2023-11-21T06:16:36.835Z,24.86
2023-11-21T06:17:16.864Z,24.81
2023-11-21T06:17:57.398Z,24.74
2023-11-21T06:18:37.399Z,24.77
2023-11-21T06:19:17.102Z,24.95
2023-11-21T06:19:57.348Z,24.89
2023-11-21T06:20:39.166Z,24.76
2023-11-21T06:21:20.496Z,24.86
2023-11-21T06:22:00.503Z,24.88
2023-11-21T06:22:44.768Z,25.00
2023-11-21T06:23:25.002Z,25.28
2023-11-21T06:24:05.039Z,25.18
2023-11-21T06:24:44.760Z,25.35
2023-11-21T06:25:24.727Z,25.27
2023-11-21T06:26:06.440Z,25.46
2023-11-21T06:26:46.283Z,25.42
2023-11-21T06:27:26.858Z,25.20
2023-11-21T06:28:07.117Z,25.19
2023-11-21T06:28:47.400Z,25.31
2023-11-21T06:29:27.734Z,25.43
2023-11-21T06:30:08.668Z,25.40
2023-11-21T06:30:48.473Z,25.60
2023-11-21T06:31:29.307Z,25.52
2023-11-21T06:32:09.101Z,25.69
2023-11-21T06:32:49.191Z,25.58
2023-11-21T06:33:29.513Z,25.52
2023-11-21T06:34:11.719Z,25.67
2023-11-21T06:34:51.707Z,25.99
2023-11-21T06:35:34.623Z,26.06
2023-11-21T06:36:14.429Z,25.93
2023-11-21T06:36:54.284Z,26.09
2023-11-21T06:37:34.647Z,26.38
2023-11-21T06:38:14.348Z,26.34
2023-11-21T06:38:54.278Z,26.28
2023-11-21T06:39:34.554Z,25.99
2023-11-21T06:40:17.125Z,26.22
2023-11-21T06:40:56.979Z,26.25
2023-11-21T06:41:37.052Z,26.12
2023-11-21T06:42:17.431Z,26.11
2023-11-21T06:42:57.324Z,25.97
2023-11-21T06:43:38.060Z,25.69
2023-11-21T06:44:17.888Z,26.12
2023-11-21T06:45:01.359Z,26.13
2023-11-21T06:45:41.263Z,26.23
2023-11-21T06:46:22.096Z,26.50
2023-11-21T06:47:02.117Z,26.06
2023-11-21T06:47:42.218Z,25.97
2023-11-21T06:48:22.469Z,25.95
2023-11-21T06:49:02.353Z,25.94
2023-11-21T06:49:43.578Z,25.96
2023-11-21T06:50:23.813Z,25.88
2023-11-21T06:51:03.691Z,25.93
2023-11-21T06:51:43.461Z,26.01
2023-11-21T06:52:23.417Z,25.98
2023-11-21T06:53:06.036Z,26.11
2023-11-21T06:53:46.716Z,26.42
2023-11-21T06:54:26.969Z,26.43
2023-11-21T06:55:07.176Z,26.41
2023-11-21T06:55:47.656Z,26.28
2023-11-21T06:56:27.810Z,26.24
2023-11-21T06:57:07.537Z,26.23
2023-11-21T06:57:48.827Z,26.12
2023-11-21T06:58:28.711Z,26.33
2023-11-21T06:59:08.562Z,26.59
2023-11-21T06:59:48.409Z,26.47
2023-11-21T07:00:31.655Z,26.48
2023-11-21T07:01:11.812Z,26.65
2023-11-21T07:01:52.022Z,26.90
2023-11-21T07:02:31.907Z,27.10
2023-11-21T07:03:11.772Z,27.07
2023-11-21T07:03:52.155Z,27.05
2023-11-21T07:04:32.118Z,27.19
2023-11-21T07:05:11.991Z,27.10
2023-11-21T07:05:51.685Z,27.34
2023-11-21T07:06:31.914Z,27.33
2023-11-21T07:07:11.831Z,27.28
2023-11-21T07:07:52.396Z,27.04
2023-11-21T07:08:32.098Z,27.16
2023-11-21T07:09:13.546Z,27.34
2023-11-21T07:09:53.988Z,26.99
2023-11-21T07:10:33.761Z,27.00
2023-11-21T07:11:13.989Z,26.95
2023-11-21T07:11:55.261Z,26.95
2023-11-21T07:12:35.093Z,27.13
2023-11-21T07:13:14.866Z,27.24
2023-11-21T07:13:54.663Z,27.24
2023-11-21T07:14:34.612Z,27.28
2023-11-21T07:15:14.394Z,27.17
2023-11-21T07:15:54.426Z,27.11
2023-11-21T07:16:36.858Z,27.21
2023-11-21T07:17:19.378Z,27.41
2023-11-21T07:17:59.631Z,27.52
2023-11-21T07:18:39.645Z,27.33
2023-11-21T07:19:19.449Z,27.22
2023-11-21T07:19:59.353Z,27.52
2023-11-21T07:20:39.167Z,27.60
2023-11-21T07:21:19.054Z,27.73
2023-11-21T07:22:00.082Z,27.61
2023-11-21T07:22:40.397Z,27.83
2023-11-21T07:23:20.470Z,27.53
2023-11-21T07:24:00.209Z,27.89
2023-11-21T07:24:40.056Z,27.99
2023-11-21T07:25:20.070Z,27.81
2023-11-21T07:25:59.839Z,27.83
2023-11-21T07:26:39.759Z,27.80
2023-11-21T07:27:20.348Z,27.97
2023-11-21T07:28:00.801Z,28.06
2023-11-21T07:28:40.697Z,28.24
2023-11-21T07:29:20.608Z,28.43
2023-11-21T07:30:00.358Z,28.45
2023-11-21T07:30:40.214Z,28.70
2023-11-21T07:31:23.545Z,28.61
2023-11-21T07:32:03.968Z,28.48
2023-11-21T07:32:43.852Z,28.54
2023-11-21T07:33:24.283Z,28.92
2023-11-21T07:34:04.458Z,28.74
2023-11-21T07:34:44.386Z,28.48
2023-11-21T07:35:24.381Z,27.92
2023-11-21T07:36:04.387Z,27.64
2023-11-21T07:36:44.300Z,27.64
2023-11-21T07:37:24.047Z,27.89
2023-11-21T07:38:03.786Z,28.05
2023-11-21T07:38:45.014Z,28.15
2023-11-21T07:39:24.892Z,28.07
2023-11-21T07:40:05.184Z,28.21
2023-11-21T07:40:44.998Z,28.13
2023-11-21T07:41:29.207Z,28.16
2023-11-21T07:42:12.825Z,27.71
2023-11-21T07:42:52.995Z,27.99
2023-11-21T07:43:36.981Z,28.22
2023-11-21T07:44:21.864Z,28.44
2023-11-21T07:45:01.783Z,28.43
2023-11-21T07:45:43.821Z,28.79
2023-11-21T07:46:26.096Z,28.60
2023-11-21T07:47:06.844Z,28.81
2023-11-21T07:47:46.760Z,28.85
2023-11-21T07:48:26.549Z,28.89
2023-11-21T07:49:06.301Z,29.17
2023-11-21T07:49:47.011Z,29.23
2023-11-21T07:50:27.302Z,29.25
2023-11-21T07:51:08.864Z,29.19
2023-11-21T07:51:48.611Z,29.24
2023-11-21T07:52:28.531Z,29.06
2023-11-21T07:53:08.349Z,28.98
2023-11-21T07:53:48.495Z,29.25
2023-11-21T07:54:28.266Z,29.25
2023-11-21T07:55:09.566Z,29.04
2023-11-21T07:55:49.429Z,29.28
2023-11-21T07:56:29.335Z,29.32
2023-11-21T07:57:09.636Z,28.96
2023-11-21T07:57:49.657Z,29.07
2023-11-21T07:58:29.425Z,29.29
2023-11-21T07:59:09.202Z,29.18
2023-11-21T07:59:48.999Z,29.10
2023-11-21T08:00:32.120Z,28.78
2023-11-21T08:01:12.076Z,28.82
2023-11-21T08:01:51.995Z,28.89
2023-11-21T08:02:31.910Z,29.18
2023-11-21T08:03:13.496Z,29.24
2023-11-21T08:03:54.688Z,29.41
2023-11-21T08:04:35.022Z,29.34
2023-11-21T08:05:21.862Z,29.43
2023-11-21T08:06:07.609Z,29.58
2023-11-21T08:06:47.891Z,29.43
2023-11-21T08:07:28.073Z,29.39
2023-11-21T08:08:08.095Z,29.49
2023-11-21T08:08:48.274Z,29.60
2023-11-21T08:09:27.960Z,29.83
2023-11-21T08:10:08.960Z,29.80
2023-11-21T08:10:58.054Z,29.95
2023-11-21T08:11:40.886Z,29.73
2023-11-21T08:12:22.228Z,29.69
2023-11-21T08:13:01.969Z,29.37
2023-11-21T08:13:41.739Z,29.51
2023-11-21T08:14:22.398Z,29.59
2023-11-21T08:15:02.513Z,29.75
2023-11-21T08:15:42.915Z,29.93
2023-11-21T08:16:23.283Z,30.21
2023-11-21T08:17:03.639Z,30.00
2023-11-21T08:17:43.554Z,29.80
2023-11-21T08:18:23.313Z,29.51
2023-11-21T08:19:03.162Z,29.00
2023-11-21T08:19:43.513Z,29.47
2023-11-21T08:20:24.803Z,29.76
2023-11-21T08:21:05.114Z,29.89
2023-11-21T08:21:44.814Z,29.93
2023-11-21T08:22:27.022Z,29.90
2023-11-21T08:23:08.279Z,29.74
2023-11-21T08:23:48.711Z,29.88
2023-11-21T08:24:28.854Z,29.63
2023-11-21T08:25:09.845Z,29.93
2023-11-21T08:25:50.112Z,29.91
2023-11-21T08:26:29.947Z,29.71
2023-11-21T08:27:09.735Z,30.05
2023-11-21T08:27:50.438Z,30.09
2023-11-21T08:28:30.483Z,30.33
2023-11-21T08:29:10.767Z,30.42
2023-11-21T08:29:50.580Z,30.67
2023-11-21T08:30:32.049Z,30.51
2023-11-21T08:31:13.346Z,30.54
2023-11-21T08:31:53.946Z,30.85
2023-11-21T08:32:35.144Z,30.75
2023-11-21T08:33:15.453Z,30.22
2023-11-21T08:33:58.337Z,30.25
2023-11-21T08:34:38.758Z,30.37
2023-11-21T08:35:18.947Z,30.48
2023-11-21T08:35:59.021Z,30.24
2023-11-21T08:36:43.181Z,30.31
2023-11-21T08:37:22.922Z,30.47
2023-11-21T08:38:03.015Z,30.45
2023-11-21T08:38:43.298Z,30.61
2023-11-21T08:39:26.270Z,30.65
2023-11-21T08:40:11.259Z,30.47
2023-11-21T08:40:51.360Z,30.49
2023-11-21T08:41:32.523Z,30.59
2023-11-21T08:42:12.309Z,30.65
2023-11-21T08:42:53.891Z,30.71
2023-11-21T08:43:33.622Z,30.80